Time;durP1;ratioP1;P1;durP2;ratioP2;P2;SDS_P1;SDS_P2;PMS_P1;PMS_P2;Temp;Humidity;BMP_temperature;BMP_pressure;BME280_temperature;BME280_humidity;BME280_pressure;Samples;Min_cycle;Max_cycle;Signal;HPM_P1;HPM_P2
2022/01/07 00:00:46;;;;;;;;;;;;;;;5.96;66.35;101204.63;5141242;27;27032;-78
2022/01/07 00:03:12;;;;;;;;;;;;;;;5.95;66.69;101210.59;5140785;27;27052;-79
2022/01/07 00:05:37;;;;;;;;;;;;;;;5.94;65.97;101206.31;5143091;27;26890;-78
2022/01/07 00:08:02;;;;;;;;;;;;;;;5.92;66.55;101202.91;5143610;27;26830;-77
2022/01/07 00:10:29;;;;;;;;;;;;;;;5.91;65.72;101201.19;5143011;27;26777;-77
2022/01/07 00:12:54;;;;;;;;;;;;;;;5.92;66.92;101200.34;5142460;27;27107;-77
2022/01/07 00:15:20;;;;;;;;;;;;;;;5.93;66.95;101191.78;5120559;27;27624;-79
2022/01/07 00:17:45;;;;;;;;;;;;;;;5.90;66.35;101189.22;5140675;27;26845;-79
2022/01/07 00:20:12;;;;;;;;;;;;;;;5.92;66.56;101190.97;5147047;27;27136;-78
2022/01/07 00:22:38;;;;;;;;;;;;;;;5.94;66.54;101173.00;5143901;27;26796;-78
2022/01/07 00:25:04;;;;;;;;;;;;;;;5.98;66.35;101177.28;5141631;27;27031;-77
2022/01/07 00:27:29;;;;;;;;;;;;;;;6.00;65.41;101175.56;5140942;27;26791;-78
2022/01/07 00:29:54;;;;;;;;;;;;;;;5.99;65.34;101163.59;5139821;27;55680;-79
2022/01/07 00:32:19;;;;;;;;;;;;;;;6.02;65.48;101159.31;5139624;27;27062;-78
2022/01/07 00:34:44;;;;;;;;;;;;;;;6.06;65.43;101165.31;5138996;27;27611;-79
2022/01/07 00:37:11;;;;;;;;;;;;;;;6.06;65.40;101152.47;5139134;27;34868;-79
2022/01/07 00:39:36;;;;;;;;;;;;;;;6.09;65.37;101160.16;5139845;27;27376;-79
2022/01/07 00:42:02;;;;;;;;;;;;;;;6.11;65.46;101153.34;5138557;27;54170;-79
2022/01/07 00:44:27;;;;;;;;;;;;;;;6.14;65.08;101150.78;5139834;27;26838;-78
2022/01/07 00:46:52;;;;;;;;;;;;;;;6.14;63.83;101143.06;5142020;27;52930;-78
2022/01/07 00:49:21;;;;;;;;;;;;;;;6.15;64.35;101144.75;5142809;27;27050;-78
2022/01/07 00:51:49;;;;;;;;;;;;;;;6.15;64.92;101130.22;5143150;27;27018;-78
2022/01/07 00:54:14;;;;;;;;;;;;;;;6.16;65.68;101137.06;5143232;27;26782;-78
2022/01/07 00:56:39;;;;;;;;;;;;;;;6.17;64.67;101127.69;5143751;27;26612;-78
2022/01/07 00:59:05;;;;;;;;;;;;;;;6.17;64.20;101117.41;5142051;27;56820;-77
2022/01/07 01:01:30;;;;;;;;;;;;;;;6.18;64.01;101114.00;5146578;27;26757;-78
2022/01/07 01:03:55;;;;;;;;;;;;;;;6.17;64.74;101118.28;5152859;27;26793;-78
2022/01/07 01:06:20;;;;;;;;;;;;;;;6.18;65.08;101109.75;5142855;27;54326;-78
2022/01/07 01:08:45;;;;;;;;;;;;;;;6.23;64.54;101102.00;5142738;27;26831;-79
2022/01/07 01:11:10;;;;;;;;;;;;;;;6.21;64.77;101101.16;5139607;27;42561;-79
2022/01/07 01:13:36;;;;;;;;;;;;;;;6.23;64.04;101102.00;5139447;27;50172;-78
2022/01/07 01:16:01;;;;;;;;;;;;;;;6.20;64.00;101096.88;5140539;27;26830;-78
2022/01/07 01:18:26;;;;;;;;;;;;;;;6.19;64.50;101090.03;5143498;27;26880;-79
2022/01/07 01:20:51;;;;;;;;;;;;;;;6.17;64.01;101095.19;5141643;27;26957;-79
2022/01/07 01:23:17;;;;;;;;;;;;;;;6.17;64.38;101096.91;5140212;27;27311;-79
2022/01/07 01:25:42;;;;;;;;;;;;;;;6.18;64.56;101084.09;5139167;27;53064;-78
2022/01/07 01:28:07;;;;;;;;;;;;;;;6.20;64.26;101081.50;5139181;27;55150;-78
2022/01/07 01:30:33;;;;;;;;;;;;;;;6.15;63.80;101085.78;5140984;27;26989;-78
2022/01/07 01:32:58;;;;;;;;;;;;;;;6.18;63.50;101088.38;5139847;27;27361;-79
2022/01/07 01:35:24;;;;;;;;;;;;;;;6.12;64.13;101083.22;5140697;27;27158;-78
2022/01/07 01:37:49;;;;;;;;;;;;;;;6.08;63.87;101081.53;5140584;27;27060;-78
2022/01/07 01:40:16;;;;;;;;;;;;;;;6.04;64.40;101082.38;5139975;27;26880;-78
2022/01/07 01:42:41;;;;;;;;;;;;;;;6.01;64.44;101069.59;5139868;27;27690;-78
2022/01/07 01:45:08;;;;;;;;;;;;;;;6.01;64.14;101067.03;5139837;27;26872;-78
2022/01/07 01:47:33;;;;;;;;;;;;;;;5.95;64.82;101069.59;5139634;27;26763;-77
2022/01/07 01:49:58;;;;;;;;;;;;;;;5.90;64.35;101055.94;5139340;27;26883;-78
2022/01/07 01:52:24;;;;;;;;;;;;;;;5.88;65.20;101062.78;5139019;27;44269;-77
2022/01/07 01:54:50;;;;;;;;;;;;;;;5.83;64.61;101061.06;5138498;27;54128;-77
2022/01/07 01:57:15;;;;;;;;;;;;;;;5.80;65.23;101061.06;5139497;27;27712;-78
2022/01/07 01:59:40;;;;;;;;;;;;;;;5.77;65.73;101060.22;5139554;27;26807;-78
2022/01/07 02:02:06;;;;;;;;;;;;;;;5.74;65.60;101055.91;5140003;27;26774;-78
2022/01/07 02:04:31;;;;;;;;;;;;;;;5.74;66.27;101048.22;5139324;27;26794;-79
2022/01/07 02:06:56;;;;;;;;;;;;;;;5.73;66.04;101046.56;5139323;27;26892;-78
2022/01/07 02:09:29;;;;;;;;;;;;;;;5.71;66.11;101038.00;5138684;27;40572;-79
2022/01/07 02:11:54;;;;;;;;;;;;;;;5.70;66.56;101033.72;5139754;27;26820;-78
2022/01/07 02:14:19;;;;;;;;;;;;;;;5.71;66.57;101021.75;5140183;27;27501;-78
2022/01/07 02:16:44;;;;;;;;;;;;;;;5.64;66.76;101023.50;5144520;27;49339;-78
2022/01/07 02:19:09;;;;;;;;;;;;;;;5.63;66.67;101016.66;5148969;27;26749;-78
2022/01/07 02:21:36;;;;;;;;;;;;;;;5.62;66.54;101004.72;5139618;27;27003;-79
2022/01/07 02:24:02;;;;;;;;;;;;;;;5.61;66.73;101003.00;5139516;27;26732;-79
2022/01/07 02:26:28;;;;;;;;;;;;;;;5.61;66.30;101008.13;5140324;27;27104;-79
2022/01/07 02:28:53;;;;;;;;;;;;;;;5.60;66.21;101000.44;5140061;27;27451;-79
2022/01/07 02:31:18;;;;;;;;;;;;;;;5.56;66.68;100994.47;5142155;27;26802;-79
2022/01/07 02:33:45;;;;;;;;;;;;;;;5.57;66.64;100991.06;5141784;27;26805;-79
2022/01/07 02:36:10;;;;;;;;;;;;;;;5.53;66.77;100989.34;5139754;27;27008;-80
2022/01/07 02:38:36;;;;;;;;;;;;;;;5.50;67.11;100983.38;5139471;27;26794;-80
2022/01/07 02:41:01;;;;;;;;;;;;;;;5.45;67.41;100980.81;5140562;27;26946;-78
2022/01/07 02:43:26;;;;;;;;;;;;;;;5.42;67.00;100973.16;5139915;27;29499;-78
2022/01/07 02:45:51;;;;;;;;;;;;;;;5.40;67.22;100977.41;5145328;27;40866;-78
2022/01/07 02:48:16;;;;;;;;;;;;;;;5.38;67.69;100968.88;5146543;27;50034;-78
2022/01/07 02:50:41;;;;;;;;;;;;;;;5.33;66.86;100968.88;5141233;27;26970;-78
2022/01/07 02:53:08;;;;;;;;;;;;;;;5.32;68.00;100964.59;5140165;27;53630;-78
2022/01/07 02:55:34;;;;;;;;;;;;;;;5.28;68.48;100967.19;5140445;27;27576;-78
2022/01/07 02:57:59;;;;;;;;;;;;;;;5.28;67.29;100964.63;5140071;27;26794;-78
2022/01/07 03:00:25;;;;;;;;;;;;;;;5.25;67.67;100964.59;5140193;27;28696;-79
2022/01/07 03:02:51;;;;;;;;;;;;;;;5.22;67.96;100962.06;5140786;27;26913;-79
2022/01/07 03:05:17;;;;;;;;;;;;;;;5.18;68.01;100955.22;5140693;27;26953;-79
2022/01/07 03:07:43;;;;;;;;;;;;;;;5.13;67.82;100946.72;5140705;27;26799;-79
2022/01/07 03:10:09;;;;;;;;;;;;;;;5.12;68.81;100950.13;5140761;27;27776;-78
2022/01/07 03:12:36;;;;;;;;;;;;;;;5.10;68.82;100946.72;5140199;27;26967;-78
2022/01/07 03:15:01;;;;;;;;;;;;;;;5.06;69.45;100939.91;5140200;27;27011;-77
2022/01/07 03:17:26;;;;;;;;;;;;;;;5.04;68.35;100946.72;5140408;27;26953;-78
2022/01/07 03:19:51;;;;;;;;;;;;;;;5.00;68.69;100937.31;5139076;27;56129;-79
2022/01/07 03:22:17;;;;;;;;;;;;;;;4.99;69.54;100938.16;5139271;27;45091;-78
2022/01/07 03:24:42;;;;;;;;;;;;;;;4.99;68.70;100933.91;5139858;27;28454;-78
2022/01/07 03:27:07;;;;;;;;;;;;;;;4.99;69.72;100935.59;5139445;27;55353;-78
2022/01/07 03:29:33;;;;;;;;;;;;;;;5.01;69.11;100931.34;5139605;27;26940;-79
2022/01/07 03:31:58;;;;;;;;;;;;;;;5.03;69.92;100929.63;5139608;27;26925;-79
2022/01/07 03:34:23;;;;;;;;;;;;;;;5.02;70.12;100918.56;5148315;27;26982;-79
2022/01/07 03:36:49;;;;;;;;;;;;;;;5.05;69.23;100912.59;5145915;27;46054;-79
2022/01/07 03:39:14;;;;;;;;;;;;;;;5.06;69.52;100914.31;5140412;27;56987;-78
2022/01/07 03:41:39;;;;;;;;;;;;;;;5.04;70.06;100916.00;5138949;27;26584;-78
2022/01/07 03:44:04;;;;;;;;;;;;;;;5.06;70.04;100919.44;5139249;27;34170;-78
2022/01/07 03:46:30;;;;;;;;;;;;;;;5.04;70.20;100910.88;5145544;27;26584;-78
2022/01/07 03:48:55;;;;;;;;;;;;;;;5.04;69.54;100900.63;5143999;27;56086;-78
2022/01/07 03:51:20;;;;;;;;;;;;;;;5.04;69.57;100900.63;5142668;27;55285;-78
2022/01/07 03:53:45;;;;;;;;;;;;;;;5.05;70.59;100897.22;5143828;27;27563;-78
2022/01/07 03:56:17;;;;;;;;;;;;;;;5.04;69.81;100895.50;5142129;27;54533;-78
2022/01/07 03:58:42;;;;;;;;;;;;;;;5.07;70.67;100886.13;5143616;27;26983;-78
2022/01/07 04:01:07;;;;;;;;;;;;;;;5.08;70.34;100881.88;5146637;27;26865;-78
2022/01/07 04:03:32;;;;;;;;;;;;;;;5.08;70.01;100881.88;5143678;27;26768;-78
2022/01/07 04:05:58;;;;;;;;;;;;;;;5.07;70.56;100880.16;5142500;27;45364;-78
2022/01/07 04:08:23;;;;;;;;;;;;;;;5.06;70.66;100873.34;5143535;27;26948;-78
2022/01/07 04:10:48;;;;;;;;;;;;;;;5.05;71.27;100869.06;5123535;27;51564;-78
2022/01/07 04:13:13;;;;;;;;;;;;;;;5.07;70.04;100859.66;5143446;27;26997;-78
2022/01/07 04:15:39;;;;;;;;;;;;;;;5.05;70.46;100857.13;5123873;27;50694;-78
2022/01/07 04:18:04;;;;;;;;;;;;;;;5.08;70.07;100854.56;5143272;27;27038;-78
2022/01/07 04:20:31;;;;;;;;;;;;;;;5.10;71.00;100860.53;5143406;27;26944;-77
2022/01/07 04:22:56;;;;;;;;;;;;;;;5.11;70.15;100861.38;5143489;27;26812;-78
2022/01/07 04:25:22;;;;;;;;;;;;;;;5.10;70.76;100862.25;5143087;27;26720;-78
2022/01/07 04:27:49;;;;;;;;;;;;;;;5.12;70.49;100863.09;5142813;27;26753;-78
2022/01/07 04:30:14;;;;;;;;;;;;;;;5.12;71.15;100865.66;5144639;27;26795;-79
2022/01/07 04:32:39;;;;;;;;;;;;;;;5.13;70.35;100852.00;5142329;27;27562;-77
2022/01/07 04:35:06;;;;;;;;;;;;;;;5.13;70.87;100855.41;5142961;27;26981;-78
2022/01/07 04:37:31;;;;;;;;;;;;;;;5.15;70.91;100852.84;5144659;27;27627;-77
2022/01/07 04:39:56;;;;;;;;;;;;;;;5.14;71.14;100851.13;5144645;27;26645;-78
2022/01/07 04:42:22;;;;;;;;;;;;;;;5.12;71.18;100857.97;5142481;27;40936;-78
2022/01/07 04:44:47;;;;;;;;;;;;;;;5.09;70.70;100847.75;5142220;27;26868;-78
2022/01/07 04:47:12;;;;;;;;;;;;;;;5.09;70.96;100852.84;5141528;27;54813;-78
2022/01/07 04:49:37;;;;;;;;;;;;;;;5.08;70.60;100841.75;5142525;27;42091;-78
2022/01/07 04:52:03;;;;;;;;;;;;;;;5.10;70.43;100857.97;5142743;27;26862;-78
2022/01/07 04:54:29;;;;;;;;;;;;;;;5.11;71.46;100840.91;5142832;27;26880;-78
2022/01/07 04:56:54;;;;;;;;;;;;;;;5.12;71.15;100842.59;5141969;27;26763;-78
2022/01/07 04:59:19;;;;;;;;;;;;;;;5.13;70.50;100846.88;5142285;27;26858;-79
2022/01/07 05:01:45;;;;;;;;;;;;;;;5.14;71.37;100835.75;5141330;27;29644;-78
2022/01/07 05:04:10;;;;;;;;;;;;;;;5.14;71.38;100831.50;5142391;27;26727;-79
2022/01/07 05:06:45;;;;;;;;;;;;;;;5.13;70.71;100818.72;5142034;27;27732;-78
2022/01/07 05:09:13;;;;;;;;;;;;;;;5.14;71.12;100820.41;5141747;27;27028;-78
2022/01/07 05:11:39;;;;;;;;;;;;;;;5.14;71.39;100825.53;5144843;27;26934;-78
2022/01/07 05:14:04;;;;;;;;;;;;;;;5.16;71.32;100821.28;5150927;27;26865;-78
2022/01/07 05:16:29;;;;;;;;;;;;;;;5.15;70.99;100824.69;5143704;27;56598;-78
2022/01/07 05:18:54;;;;;;;;;;;;;;;5.14;71.51;100821.25;5142375;27;45639;-79
2022/01/07 05:21:19;;;;;;;;;;;;;;;5.15;71.11;100817.00;5143152;27;26625;-79
2022/01/07 05:23:45;;;;;;;;;;;;;;;5.15;71.73;100811.88;5142576;27;28082;-79
2022/01/07 05:26:10;;;;;;;;;;;;;;;5.16;70.97;100823.81;5141715;27;44619;-79
2022/01/07 05:28:35;;;;;;;;;;;;;;;5.20;70.94;100825.53;5140927;27;54587;-78
2022/01/07 05:31:02;;;;;;;;;;;;;;;5.21;71.95;100817.00;5142154;27;26882;-79
2022/01/07 05:33:28;;;;;;;;;;;;;;;5.23;71.27;100815.28;5141900;27;27126;-78
2022/01/07 05:35:53;;;;;;;;;;;;;;;5.25;71.81;100818.66;5142278;27;26895;-78
2022/01/07 05:38:18;;;;;;;;;;;;;;;5.24;71.06;100816.97;5142059;27;26638;-78
2022/01/07 05:40:43;;;;;;;;;;;;;;;5.23;70.90;100805.03;5144130;27;44772;-77
2022/01/07 05:43:08;;;;;;;;;;;;;;;5.24;70.99;100812.72;5140404;27;27070;-77
2022/01/07 05:45:33;;;;;;;;;;;;;;;5.28;71.50;100803.31;5140007;27;27517;-78
2022/01/07 05:47:59;;;;;;;;;;;;;;;5.23;71.81;100805.03;5140198;27;40536;-78
2022/01/07 05:50:24;;;;;;;;;;;;;;;5.21;71.09;100801.63;5141043;27;54683;-79
2022/01/07 05:52:49;;;;;;;;;;;;;;;5.21;70.84;100802.47;5142075;27;46168;-78
2022/01/07 05:55:14;;;;;;;;;;;;;;;5.23;71.06;100805.03;5142137;27;26789;-81
2022/01/07 05:57:40;;;;;;;;;;;;;;;5.24;71.70;100793.94;5143423;27;36526;-77
2022/01/07 06:00:07;;;;;;;;;;;;;;;5.22;70.95;100804.16;5142468;27;26902;-78
2022/01/07 06:02:32;;;;;;;;;;;;;;;5.18;71.42;100801.63;5142172;27;26814;-79
2022/01/07 06:04:57;;;;;;;;;;;;;;;5.18;71.08;100796.50;5141666;27;27169;-78
2022/01/07 06:07:22;;;;;;;;;;;;;;;5.17;71.65;100789.69;5141222;27;26838;-78
2022/01/07 06:09:48;;;;;;;;;;;;;;;5.14;71.94;100777.75;5140533;27;26858;-79
2022/01/07 06:12:13;;;;;;;;;;;;;;;5.17;71.74;100782.03;5140771;27;26729;-79
2022/01/07 06:14:38;;;;;;;;;;;;;;;5.19;71.94;100780.28;5151595;27;26893;-78
2022/01/07 06:17:03;;;;;;;;;;;;;;;5.17;71.99;100780.31;5145245;27;43333;-79
2022/01/07 06:19:28;;;;;;;;;;;;;;;5.17;71.33;100780.31;5142247;27;27537;-77
2022/01/07 06:21:53;;;;;;;;;;;;;;;5.20;71.84;100779.44;5140534;27;53927;-77
2022/01/07 06:24:19;;;;;;;;;;;;;;;5.22;71.47;100777.72;5141180;27;26614;-77
2022/01/07 06:26:45;;;;;;;;;;;;;;;5.24;71.36;100776.03;5140363;27;46438;-77
2022/01/07 06:29:10;;;;;;;;;;;;;;;5.26;71.92;100782.81;5141490;27;27137;-77
2022/01/07 06:31:36;;;;;;;;;;;;;;;5.27;71.25;100796.47;5141082;27;26916;-77
2022/01/07 06:34:02;;;;;;;;;;;;;;;5.27;71.86;100788.81;5141048;27;26841;-78
2022/01/07 06:36:28;;;;;;;;;;;;;;;5.29;71.78;100782.81;5141264;27;26792;-77
2022/01/07 06:38:54;;;;;;;;;;;;;;;5.30;71.90;100781.97;5141860;27;27416;-78
2022/01/07 06:41:20;;;;;;;;;;;;;;;5.34;71.79;100787.91;5141312;27;26995;-78
2022/01/07 06:43:45;;;;;;;;;;;;;;;5.32;71.37;100775.09;5141158;27;27044;-80
2022/01/07 06:46:11;;;;;;;;;;;;;;;5.33;71.58;100791.31;5142244;27;53850;-80
2022/01/07 06:48:37;;;;;;;;;;;;;;;5.36;71.85;100791.34;5141954;27;26954;-78
2022/01/07 06:51:02;;;;;;;;;;;;;;;5.38;72.01;100779.38;5143356;27;26748;-80
2022/01/07 06:53:29;;;;;;;;;;;;;;;5.42;71.90;100780.19;5149872;27;39530;-79
2022/01/07 06:55:54;;;;;;;;;;;;;;;5.44;72.32;100789.56;5147086;27;26873;-77
2022/01/07 06:58:19;;;;;;;;;;;;;;;5.45;72.26;100781.03;5144772;27;27230;-78
2022/01/07 07:00:44;;;;;;;;;;;;;;;5.50;72.47;100779.31;5140521;27;54737;-78
2022/01/07 07:03:09;;;;;;;;;;;;;;;5.53;71.50;100784.41;5139892;27;55832;-78
2022/01/07 07:05:34;;;;;;;;;;;;;;;5.56;72.15;100784.41;5139572;27;54708;-80
2022/01/07 07:08:00;;;;;;;;;;;;;;;5.59;72.15;100789.50;5148760;27;26551;-79
2022/01/07 07:10:26;;;;;;;;;;;;;;;5.64;71.79;100792.91;5139920;27;26837;-78
2022/01/07 07:12:51;;;;;;;;;;;;;;;5.66;72.27;100801.41;5139177;27;26941;-78
2022/01/07 07:15:16;;;;;;;;;;;;;;;5.69;71.80;100800.56;5139160;27;26912;-79
2022/01/07 07:17:44;;;;;;;;;;;;;;;5.69;71.73;100801.44;5138008;27;57181;-78
2022/01/07 07:20:10;;;;;;;;;;;;;;;5.72;71.90;100795.44;5139366;27;26743;-79
2022/01/07 07:22:35;;;;;;;;;;;;;;;5.77;71.43;100784.28;5139474;27;27029;-81
2022/01/07 07:25:00;;;;;;;;;;;;;;;5.82;71.60;100785.09;5140979;27;54053;-81
2022/01/07 07:27:25;;;;;;;;;;;;;;;5.87;72.30;100774.00;5141551;27;48502;-80
2022/01/07 07:29:50;;;;;;;;;;;;;;;5.90;71.98;100789.38;5125296;27;54550;-79
2022/01/07 07:32:21;;;;;;;;;;;;;;;5.92;72.00;100787.66;5146700;27;26712;-79
2022/01/07 07:35:02;;;;;;;;;;;;;;;5.97;72.14;100791.03;5146511;27;26879;-79
2022/01/07 07:37:28;;;;;;;;;;;;;;;6.00;72.16;100785.91;5146139;27;26808;-79
2022/01/07 07:39:53;;;;;;;;;;;;;;;6.02;71.52;100779.03;5144823;27;26920;-81
2022/01/07 07:42:19;;;;;;;;;;;;;;;6.02;72.18;100777.34;5144109;27;27154;-81
2022/01/07 07:44:45;;;;;;;;;;;;;;;6.06;71.59;100780.72;5142937;27;27064;-81
2022/01/07 07:47:10;;;;;;;;;;;;;;;6.10;71.46;100782.41;5141902;27;27004;-78
2022/01/07 07:49:35;;;;;;;;;;;;;;;6.15;71.55;100785.75;5144272;27;36862;-79
2022/01/07 07:52:00;;;;;;;;;;;;;;;6.16;72.34;100787.47;5147938;27;26786;-79
2022/01/07 07:54:26;;;;;;;;;;;;;;;6.19;71.83;100785.75;5145993;27;52940;-80
2022/01/07 07:56:51;;;;;;;;;;;;;;;6.19;71.91;100792.56;5126982;27;28081;-80
2022/01/07 07:59:16;;;;;;;;;;;;;;;6.20;71.77;100789.16;5146027;27;27057;-80
2022/01/07 08:01:42;;;;;;;;;;;;;;;6.20;71.73;100778.91;5144679;27;56615;-79
2022/01/07 08:04:10;;;;;;;;;;;;;;;6.22;71.83;100788.28;5145957;27;26848;-80
2022/01/07 08:06:35;;;;;;;;;;;;;;;6.27;71.99;100775.41;5146276;27;26729;-80
2022/01/07 08:09:02;;;;;;;;;;;;;;;6.30;71.62;100788.22;5144752;27;37178;-80
2022/01/07 08:11:31;;;;;;;;;;;;;;;6.35;72.11;100783.91;5148296;27;26838;-80
2022/01/07 08:16:40;;;;;;;;;;;;;;;6.37;72.48;100787.34;5146434;27;26967;-79
2022/01/07 08:19:05;;;;;;;;;;;;;;;6.40;72.08;100787.31;5144966;27;36927;-80
2022/01/07 08:21:31;;;;;;;;;;;;;;;6.43;72.27;100797.53;5140357;27;56606;-80
2022/01/07 08:23:56;;;;;;;;;;;;;;;6.39;72.57;100788.16;5122294;27;27086;-80
2022/01/07 08:26:23;;;;;;;;;;;;;;;6.45;71.88;100780.41;5141087;27;26946;-81
2022/01/07 08:28:53;;;;;;;;;;;;;;;6.48;72.14;100782.97;5141590;27;27064;-80
2022/01/07 08:36:30;;;;;;;;;;;;;;;6.60;72.24;100771.72;5136054;27;26935;-80
2022/01/07 08:38:55;;;;;;;;;;;;;;;6.63;72.14;100780.25;5140944;27;27070;-81
2022/01/07 08:41:22;;;;;;;;;;;;;;;6.65;72.19;100777.66;5140571;27;27501;-80
2022/01/07 08:43:48;;;;;;;;;;;;;;;6.66;71.85;100795.63;5141377;27;26932;-80
2022/01/07 08:46:13;;;;;;;;;;;;;;;6.68;71.67;100783.63;5146849;27;26978;-79
2022/01/07 08:48:38;;;;;;;;;;;;;;;6.72;72.49;100784.44;5146754;27;40820;-79
2022/01/07 08:51:04;;;;;;;;;;;;;;;6.76;72.19;100779.25;5144549;27;26848;-79
2022/01/07 08:53:30;;;;;;;;;;;;;;;6.76;71.72;100771.56;5144273;27;26799;-79
2022/01/07 08:55:55;;;;;;;;;;;;;;;6.82;72.30;100769.81;5143360;27;26987;-79
2022/01/07 08:58:21;;;;;;;;;;;;;;;6.85;71.67;100780.03;5144462;27;26885;-80
2022/01/07 09:00:46;;;;;;;;;;;;;;;6.85;72.50;100769.78;5141387;27;26765;-80
2022/01/07 09:03:11;;;;;;;;;;;;;;;6.88;71.87;100775.72;5139886;27;55197;-80
2022/01/07 09:05:36;;;;;;;;;;;;;;;6.93;72.58;100773.13;5140530;27;27124;-80
2022/01/07 09:08:01;;;;;;;;;;;;;;;6.99;71.84;100773.03;5140070;27;37408;-81
2022/01/07 09:10:27;;;;;;;;;;;;;;;7.05;72.11;100765.28;5140034;27;26711;-80
2022/01/07 09:12:52;;;;;;;;;;;;;;;7.09;71.56;100774.63;5140967;27;27188;-81
2022/01/07 09:15:17;;;;;;;;;;;;;;;7.11;71.47;100772.91;5142970;27;26727;-81
2022/01/07 09:17:43;;;;;;;;;;;;;;;7.11;71.67;100778.91;5141180;27;26772;-81
2022/01/07 09:20:09;;;;;;;;;;;;;;;7.11;71.87;100788.31;5140894;27;27009;-80
2022/01/07 09:22:35;;;;;;;;;;;;;;;7.06;72.11;100795.22;5140881;27;27066;-80
2022/01/07 09:25:00;;;;;;;;;;;;;;;7.02;71.71;100790.97;5140185;27;26834;-80
2022/01/07 09:27:25;;;;;;;;;;;;;;;7.01;72.13;100786.72;5140251;27;26634;-80
2022/01/07 09:29:51;;;;;;;;;;;;;;;7.03;71.92;100787.53;5148501;27;26904;-80
2022/01/07 09:32:16;;;;;;;;;;;;;;;7.11;72.18;100788.31;5145002;27;26878;-79
2022/01/07 09:34:41;;;;;;;;;;;;;;;7.15;71.88;100779.72;5144174;27;43670;-80
2022/01/07 09:37:06;;;;;;;;;;;;;;;7.18;71.71;100789.94;5144368;27;27175;-79
2022/01/07 09:39:33;;;;;;;;;;;;;;;7.21;72.43;100793.31;5143362;27;57064;-79
2022/01/07 09:42:01;;;;;;;;;;;;;;;7.26;71.99;100788.13;5144108;27;26873;-79
2022/01/07 09:44:27;;;;;;;;;;;;;;;7.31;71.91;100786.34;5143817;27;27049;-79
2022/01/07 09:46:53;;;;;;;;;;;;;;;7.36;71.93;100784.59;5142205;27;26780;-79
2022/01/07 09:49:19;;;;;;;;;;;;;;;7.41;72.27;100777.69;5142497;27;27062;-78
2022/01/07 09:51:44;;;;;;;;;;;;;;;7.46;72.16;100775.88;5141831;27;32576;-80
2022/01/07 09:54:09;;;;;;;;;;;;;;;7.54;71.76;100784.34;5140611;27;27076;-78
2022/01/07 09:56:35;;;;;;;;;;;;;;;7.55;71.40;100786.06;5138078;27;27190;-78
2022/01/07 09:59:04;;;;;;;;;;;;;;;7.57;71.86;100783.47;5138697;27;26997;-80
2022/01/07 10:01:30;;;;;;;;;;;;;;;7.60;71.54;100774.00;5138569;27;26818;-77
2022/01/07 10:03:56;;;;;;;;;;;;;;;7.63;71.64;100768.81;5137708;27;50039;-80
2022/01/07 10:06:22;;;;;;;;;;;;;;;7.68;71.75;100769.63;5138485;27;26949;-81
2022/01/07 10:09:01;;;;;;;;;;;;;;;7.73;71.56;100774.66;5139573;27;27007;-80
2022/01/07 10:11:27;;;;;;;;;;;;;;;7.73;71.55;100775.53;5139663;27;26946;-81
2022/01/07 10:14:10;;;;;;;;;;;;;;;7.80;71.76;100765.19;5140524;27;26990;-80
2022/01/07 10:16:47;;;;;;;;;;;;;;;7.82;71.44;100771.13;5138976;27;26839;-80
2022/01/07 10:19:27;;;;;;;;;;;;;;;7.83;71.32;100770.28;5139765;27;26868;-79
2022/01/07 10:21:56;;;;;;;;;;;;;;;7.83;71.34;100770.28;5140014;27;26891;-79
2022/01/07 10:24:21;;;;;;;;;;;;;;;7.80;71.20;100762.59;5139548;27;26969;-79
2022/01/07 10:27:06;;;;;;;;;;;;;;;7.77;70.97;100764.34;5139569;27;26703;-79
2022/01/07 10:29:36;;;;;;;;;;;;;;;7.81;71.14;100761.72;5142504;27;27758;-79
2022/01/07 10:32:21;;;;;;;;;;;;;;;7.78;70.91;100753.19;5140411;27;26891;-79
2022/01/07 10:35:09;;;;;;;;;;;;;;;7.80;71.44;100754.91;5139867;27;27028;-80
2022/01/07 10:37:34;;;;;;;;;;;;;;;7.80;71.50;100754.91;5139753;27;27007;-78
2022/01/07 10:40:00;;;;;;;;;;;;;;;7.82;71.27;100748.00;5139255;27;27857;-78
2022/01/07 10:42:26;;;;;;;;;;;;;;;7.85;71.05;100748.78;5120416;27;27204;-79
2022/01/07 10:45:00;;;;;;;;;;;;;;;7.88;71.54;100742.75;5139296;27;26856;-79
2022/01/07 10:47:26;;;;;;;;;;;;;;;7.95;71.16;100739.25;5138851;27;26946;-79
2022/01/07 10:50:11;;;;;;;;;;;;;;;8.00;71.30;100732.28;5139255;27;26833;-78
2022/01/07 10:52:36;;;;;;;;;;;;;;;8.08;71.21;100730.44;5137129;27;26862;-79
2022/01/07 10:55:10;;;;;;;;;;;;;;;8.16;71.29;100728.59;5136710;27;56378;-79
2022/01/07 10:57:43;;;;;;;;;;;;;;;8.23;71.13;100720.75;5138186;27;27108;-79
2022/01/07 11:00:10;;;;;;;;;;;;;;;8.31;71.34;100723.22;5141761;27;27422;-80
2022/01/07 11:02:36;;;;;;;;;;;;;;;8.38;71.28;100718.81;5141357;27;27066;-79
2022/01/07 11:05:01;;;;;;;;;;;;;;;8.42;71.11;100705.88;5141202;27;27012;-79
2022/01/07 11:07:28;;;;;;;;;;;;;;;8.45;71.04;100705.81;5141678;27;26862;-79
2022/01/07 11:09:54;;;;;;;;;;;;;;;8.51;71.00;100705.69;5142475;27;27535;-78
2022/01/07 11:12:19;;;;;;;;;;;;;;;8.58;71.19;100707.31;5147864;27;26458;-79
2022/01/07 11:14:45;;;;;;;;;;;;;;;8.62;70.61;100703.78;5142747;27;26877;-80
2022/01/07 11:17:12;;;;;;;;;;;;;;;8.65;70.54;100697.75;5143444;27;33725;-80
2022/01/07 11:19:39;;;;;;;;;;;;;;;8.65;69.92;100708.03;5141519;27;27704;-79
2022/01/07 11:22:06;;;;;;;;;;;;;;;8.58;69.65;100707.31;5141840;27;27100;-79
2022/01/07 11:24:42;;;;;;;;;;;;;;;8.56;70.05;100709.03;5140421;27;26848;-79
2022/01/07 11:27:09;;;;;;;;;;;;;;;8.53;70.23;100710.84;5121605;27;26961;-80
2022/01/07 11:29:35;;;;;;;;;;;;;;;8.52;70.24;100707.41;5140669;27;26934;-79
2022/01/07 11:32:19;;;;;;;;;;;;;;;8.54;70.21;100707.38;5140383;27;26735;-78
2022/01/07 11:34:44;;;;;;;;;;;;;;;8.59;70.26;100701.25;5142123;27;27024;-80
2022/01/07 11:37:28;;;;;;;;;;;;;;;8.58;69.62;100707.31;5142241;27;26772;-80
2022/01/07 11:39:54;;;;;;;;;;;;;;;8.58;69.94;100702.16;5142116;27;27637;-80
2022/01/07 11:42:37;;;;;;;;;;;;;;;8.54;69.78;100704.81;5142225;27;26784;-81
2022/01/07 11:45:21;;;;;;;;;;;;;;;8.52;69.68;100712.56;5143324;27;27557;-79
2022/01/07 11:47:49;;;;;;;;;;;;;;;8.50;69.32;100704.03;5147450;27;26979;-80
2022/01/07 11:50:14;;;;;;;;;;;;;;;8.48;69.36;100700.63;5143762;27;26992;-81
2022/01/07 11:52:39;;;;;;;;;;;;;;;8.50;69.93;100709.16;5143020;27;26983;-80
2022/01/07 11:55:17;;;;;;;;;;;;;;;8.51;70.14;100704.88;5142085;27;26976;-80
2022/01/07 11:57:52;;;;;;;;;;;;;;;8.52;69.96;100702.25;5142238;27;26781;-80
2022/01/07 12:00:36;;;;;;;;;;;;;;;8.55;69.55;100702.19;5141584;27;26928;-80
2022/01/07 12:03:02;;;;;;;;;;;;;;;8.63;70.03;100700.34;5141988;27;26941;-80
2022/01/07 12:05:28;;;;;;;;;;;;;;;8.70;69.14;100701.91;5141714;27;27884;-80
2022/01/07 12:07:53;;;;;;;;;;;;;;;8.74;69.50;100703.56;5141072;27;26838;-81
2022/01/07 12:10:20;;;;;;;;;;;;;;;8.76;69.05;100706.09;5139823;27;26979;-80
2022/01/07 12:12:45;;;;;;;;;;;;;;;8.77;69.04;100704.38;5143041;27;27249;-81
2022/01/07 12:15:10;;;;;;;;;;;;;;;8.69;69.06;100705.38;5142608;27;27729;-80
2022/01/07 12:17:36;;;;;;;;;;;;;;;8.60;69.02;100715.84;5142504;27;54178;-80
2022/01/07 12:20:28;;;;;;;;;;;;;;;8.57;69.01;100709.91;5146693;27;56013;-79
2022/01/07 12:22:54;;;;;;;;;;;;;;;8.55;69.54;100701.34;5141863;27;26816;-80
2022/01/07 12:25:19;;;;;;;;;;;;;;;8.56;69.38;100698.75;5142098;27;26835;-80
2022/01/07 12:27:45;;;;;;;;;;;;;;;8.54;68.72;100705.66;5142423;27;26797;-80
2022/01/07 12:30:12;;;;;;;;;;;;;;;8.49;69.15;100697.16;5142329;27;26924;-80
2022/01/07 12:32:38;;;;;;;;;;;;;;;8.44;68.95;100693.81;5141979;27;26992;-80
2022/01/07 12:35:04;;;;;;;;;;;;;;;8.37;68.76;100692.22;5140819;27;26900;-80
2022/01/07 12:37:30;;;;;;;;;;;;;;;8.29;69.05;100688.94;5139910;27;27001;-80
2022/01/07 12:39:57;;;;;;;;;;;;;;;8.21;69.29;100685.66;5139931;27;26996;-79
2022/01/07 12:42:22;;;;;;;;;;;;;;;8.15;69.28;100675.44;5139665;27;26865;-79
2022/01/07 12:44:52;;;;;;;;;;;;;;;8.10;69.38;100677.22;5139552;27;27028;-80
2022/01/07 12:47:19;;;;;;;;;;;;;;;8.09;69.61;100665.28;5139497;27;26958;-79
2022/01/07 12:49:45;;;;;;;;;;;;;;;8.14;69.67;100669.44;5140515;27;27099;-79
2022/01/07 12:52:20;;;;;;;;;;;;;;;8.25;70.07;100676.97;5142292;27;26767;-78